Time;durP1;ratioP1;P1;durP2;ratioP2;P2;SDS_P1;SDS_P2;PMS_P1;PMS_P2;Temp;Humidity;BMP_temperature;BMP_pressure;BME280_temperature;BME280_humidity;BME280_pressure;Samples;Min_cycle;Max_cycle;Signal;HPM_P1;HPM_P2
2022/09/15 00:02:07;;;;;;;6.78;1.75;;;15.20;99.90;;;;;;5056946;28;20056;-62
2022/09/15 00:04:32;;;;;;;5.63;1.70;;;15.20;99.90;;;;;;5038822;28;20045;-62
2022/09/15 00:06:58;;;;;;;6.28;1.15;;;15.20;99.90;;;;;;5056407;28;20449;-63
2022/09/15 00:09:23;;;;;;;11.23;2.25;;;15.20;99.90;;;;;;5038842;28;20037;-64
2022/09/15 00:11:49;;;;;;;7.50;1.70;;;15.20;99.90;;;;;;5056367;28;20427;-63
2022/09/15 00:14:14;;;;;;;6.90;2.30;;;15.20;99.90;;;;;;5056595;28;20041;-63
2022/09/15 00:16:40;;;;;;;11.45;2.45;;;15.20;99.90;;;;;;5056156;28;20355;-63
2022/09/15 00:19:06;;;;;;;4.93;1.42;;;15.10;99.90;;;;;;5055522;28;20118;-63
2022/09/15 00:21:33;;;;;;;4.38;1.48;;;15.10;99.90;;;;;;5039035;28;20056;-63
2022/09/15 00:24:00;;;;;;;6.60;1.50;;;15.10;99.90;;;;;;5035144;28;20132;-64
2022/09/15 00:26:28;;;;;;;6.45;1.40;;;15.20;99.90;;;;;;5049633;28;20060;-64
2022/09/15 00:28:55;;;;;;;4.25;1.38;;;15.20;99.90;;;;;;5035538;28;20447;-63
2022/09/15 00:31:22;;;;;;;5.95;1.38;;;15.10;99.90;;;;;;5052785;28;20032;-63
2022/09/15 00:33:53;;;;;;;3.42;1.33;;;15.10;99.90;;;;;;5034212;28;20073;-64
2022/09/15 00:36:20;;;;;;;8.70;1.90;;;15.20;99.90;;;;;;5054942;28;20163;-63
2022/09/15 00:38:46;;;;;;;7.05;1.40;;;15.30;99.90;;;;;;5038118;28;20106;-62
2022/09/15 00:41:14;;;;;;;7.65;2.47;;;15.20;99.90;;;;;;5038603;28;20045;-63
2022/09/15 00:43:42;;;;;;;8.15;1.67;;;15.20;99.90;;;;;;5055909;28;20090;-63
2022/09/15 00:46:09;;;;;;;7.93;2.25;;;15.20;99.90;;;;;;5037750;28;20379;-62
2022/09/15 00:48:39;;;;;;;10.50;1.95;;;15.30;99.90;;;;;;5055940;28;20049;-62
2022/09/15 00:51:07;;;;;;;8.43;1.90;;;15.30;99.90;;;;;;5055482;28;20052;-62
2022/09/15 00:53:33;;;;;;;6.65;2.00;;;15.30;99.90;;;;;;5055315;28;20045;-64
2022/09/15 00:56:00;;;;;;;8.98;1.63;;;15.30;99.90;;;;;;5055856;28;20516;-62
2022/09/15 00:58:37;;;;;;;9.10;1.90;;;15.30;99.90;;;;;;5055256;28;20045;-63
2022/09/15 01:01:06;;;;;;;8.30;1.58;;;15.20;99.90;;;;;;5037252;28;20053;-63
2022/09/15 01:03:32;;;;;;;9.32;2.10;;;15.30;99.90;;;;;;5034535;28;20041;-63
2022/09/15 01:06:10;;;;;;;6.80;1.35;;;15.30;99.90;;;;;;5052926;28;20367;-63
2022/09/15 01:08:52;;;;;;;6.15;1.73;;;15.30;99.90;;;;;;5054961;28;20076;-62
2022/09/15 01:11:19;;;;;;;14.45;2.42;;;15.30;99.90;;;;;;5055396;28;20056;-63
2022/09/15 01:13:44;;;;;;;12.73;2.40;;;15.20;99.90;;;;;;5033778;28;20059;-63
2022/09/15 01:16:23;;;;;;;8.88;2.47;;;15.30;99.90;;;;;;5050305;28;20106;-63
2022/09/15 01:19:05;;;;;;;9.63;2.33;;;15.20;99.90;;;;;;5038324;28;20064;-63
2022/09/15 01:21:37;;;;;;;11.55;2.53;;;15.20;99.90;;;;;;5044979;28;20040;-62
2022/09/15 01:24:16;;;;;;;13.65;2.72;;;15.20;99.90;;;;;;5054737;28;20060;-64
2022/09/15 01:27:07;;;;;;;8.98;1.85;;;15.10;99.90;;;;;;5054549;28;20486;-63
2022/09/15 01:30:12;;;;;;;7.82;1.90;;;15.10;99.90;;;;;;5054888;28;20124;-63
2022/09/15 01:33:04;;;;;;;9.05;1.80;;;15.10;99.90;;;;;;5054450;28;20041;-64
2022/09/15 01:35:31;;;;;;;8.93;1.52;;;15.10;99.90;;;;;;5054551;28;20067;-63
2022/09/15 01:38:10;;;;;;;11.93;1.38;;;15.00;99.90;;;;;;5044201;28;20123;-62
2022/09/15 01:40:49;;;;;;;8.02;1.48;;;15.00;99.90;;;;;;5053066;28;20045;-63
2022/09/15 01:43:17;;;;;;;6.03;2.03;;;15.00;99.90;;;;;;5050377;28;20032;-62
2022/09/15 01:45:46;;;;;;;9.65;1.85;;;15.10;99.90;;;;;;5055024;28;20045;-63
2022/09/15 01:48:15;;;;;;;7.53;1.20;;;15.00;99.90;;;;;;5054591;28;20045;-64
2022/09/15 01:50:46;;;;;;;5.38;1.27;;;15.00;99.90;;;;;;5036707;28;20052;-62
2022/09/15 01:53:16;;;;;;;8.52;2.72;;;15.00;99.90;;;;;;5054553;28;20085;-63
2022/09/15 01:56:04;;;;;;;6.18;1.30;;;15.00;99.90;;;;;;5054219;28;20055;-63
2022/09/15 01:58:31;;;;;;;8.88;2.25;;;15.00;99.90;;;;;;5054325;28;20056;-63
2022/09/15 02:01:07;;;;;;;5.50;1.60;;;14.90;99.90;;;;;;5054462;28;20053;-63
2022/09/15 02:03:47;;;;;;;5.53;1.52;;;14.90;99.90;;;;;;5044733;28;20051;-63
2022/09/15 02:06:24;;;;;;;7.07;1.77;;;14.90;99.90;;;;;;5054453;28;20048;-64
2022/09/15 02:09:01;;;;;;;8.75;1.73;;;15.00;99.90;;;;;;5054300;28;20044;-63
2022/09/15 02:11:29;;;;;;;6.80;2.28;;;15.00;99.90;;;;;;5054393;28;20466;-63
2022/09/15 02:14:17;;;;;;;12.90;2.53;;;14.90;99.90;;;;;;5054131;28;20076;-63
2022/09/15 02:16:51;;;;;;;8.88;1.52;;;14.90;99.90;;;;;;5054039;28;20113;-63
2022/09/15 02:19:30;;;;;;;7.72;2.28;;;14.90;99.90;;;;;;5054339;28;20041;-63
2022/09/15 02:22:09;;;;;;;8.85;1.90;;;14.90;99.90;;;;;;5054069;28;20041;-62
2022/09/15 02:24:44;;;;;;;10.57;2.10;;;15.00;99.90;;;;;;5044596;28;20459;-63
2022/09/15 02:27:23;;;;;;;14.35;2.72;;;15.00;99.90;;;;;;5053913;28;20069;-63
2022/09/15 02:29:54;;;;;;;8.98;2.72;;;15.00;99.90;;;;;;5054245;28;20049;-64
2022/09/15 02:32:22;;;;;;;9.50;2.13;;;14.90;99.90;;;;;;5054466;28;20057;-62
2022/09/15 02:34:50;;;;;;;11.88;3.22;;;15.00;99.90;;;;;;5036197;28;20394;-63
2022/09/15 02:37:19;;;;;;;8.00;2.30;;;15.00;99.90;;;;;;5036228;28;20037;-63
2022/09/15 02:39:56;;;;;;;5.75;2.10;;;15.00;99.90;;;;;;5033763;28;20054;-63
2022/09/15 02:42:24;;;;;;;10.50;2.53;;;15.00;99.90;;;;;;5053283;28;20056;-63
2022/09/15 02:44:50;;;;;;;5.57;1.83;;;15.00;99.90;;;;;;5053640;28;20049;-63
2022/09/15 02:47:16;;;;;;;7.80;1.55;;;15.00;99.90;;;;;;5053972;28;20060;-63
2022/09/15 02:49:41;;;;;;;8.07;1.98;;;15.10;99.90;;;;;;5053732;28;20119;-62
2022/09/15 02:52:07;;;;;;;7.35;1.90;;;15.00;99.90;;;;;;5053786;28;20427;-64
2022/09/15 02:54:32;;;;;;;6.28;1.75;;;15.10;99.90;;;;;;5054153;28;20367;-63
2022/09/15 02:56:59;;;;;;;5.72;1.67;;;15.10;99.90;;;;;;5056401;28;20413;-62
2022/09/15 02:59:25;;;;;;;7.28;1.92;;;15.10;99.90;;;;;;5057632;28;20340;-63
2022/09/15 03:01:52;;;;;;;8.50;2.20;;;15.10;99.90;;;;;;5057691;28;20049;-64
2022/09/15 03:04:18;;;;;;;6.20;1.35;;;15.10;99.90;;;;;;5055913;28;20044;-63
2022/09/15 03:06:44;;;;;;;6.22;2.15;;;15.20;99.90;;;;;;5057913;28;20044;-63
2022/09/15 03:09:10;;;;;;;5.53;2.58;;;15.10;99.90;;;;;;5039323;28;20045;-63
2022/09/15 03:11:36;;;;;;;12.25;2.60;;;15.10;99.90;;;;;;5057576;28;20041;-62
2022/09/15 03:14:04;;;;;;;8.63;2.25;;;15.10;99.90;;;;;;5057742;28;20048;-63
2022/09/15 03:16:33;;;;;;;8.13;2.05;;;15.10;99.90;;;;;;5057127;28;20060;-62
2022/09/15 03:18:59;;;;;;;8.68;2.20;;;15.00;99.90;;;;;;5039736;28;20060;-63
2022/09/15 03:21:28;;;;;;;6.47;1.75;;;14.90;99.90;;;;;;5057178;28;20052;-64
2022/09/15 03:23:54;;;;;;;11.73;2.33;;;14.90;99.90;;;;;;5038939;28;20053;-64
2022/09/15 03:26:20;;;;;;;8.57;2.13;;;14.80;99.90;;;;;;5057526;28;20068;-63
2022/09/15 03:28:45;;;;;;;13.90;2.28;;;14.80;99.90;;;;;;5039548;28;20045;-63
2022/09/15 03:31:11;;;;;;;9.60;2.17;;;14.80;99.90;;;;;;5039211;28;20152;-63
2022/09/15 03:33:37;;;;;;;8.90;2.13;;;14.80;99.90;;;;;;5040116;28;20124;-64
2022/09/15 03:36:03;;;;;;;10.32;2.60;;;14.80;99.90;;;;;;5056761;28;20359;-63
2022/09/15 03:38:29;;;;;;;9.98;2.25;;;14.80;99.90;;;;;;5056840;28;20075;-62
2022/09/15 03:40:59;;;;;;;12.38;2.22;;;14.80;99.90;;;;;;5057082;28;20120;-63
2022/09/15 03:43:24;;;;;;;7.38;1.80;;;14.90;99.90;;;;;;5056662;28;20369;-62
2022/09/15 03:45:50;;;;;;;9.55;2.60;;;14.90;99.90;;;;;;5056713;28;20102;-64
2022/09/15 03:48:16;;;;;;;9.38;2.67;;;14.80;99.90;;;;;;5056341;28;20063;-63
2022/09/15 03:50:42;;;;;;;8.50;2.25;;;14.70;99.90;;;;;;5056544;28;20463;-62
2022/09/15 03:53:07;;;;;;;17.05;2.80;;;14.70;99.90;;;;;;5056897;28;20466;-62
2022/09/15 03:55:33;;;;;;;9.68;3.08;;;14.70;99.90;;;;;;5056473;28;20087;-63
2022/09/15 03:57:58;;;;;;;9.52;2.22;;;14.70;99.90;;;;;;5038640;28;20056;-62
2022/09/15 04:00:24;;;;;;;13.00;3.20;;;14.70;99.90;;;;;;5035564;28;20049;-63
2022/09/15 04:02:49;;;;;;;13.23;2.30;;;14.70;99.90;;;;;;5052808;28;20040;-63
2022/09/15 04:05:15;;;;;;;8.07;3.15;;;14.70;99.90;;;;;;5056581;28;20047;-63
2022/09/15 04:07:41;;;;;;;12.85;2.60;;;14.70;99.90;;;;;;5052669;28;20041;-63
2022/09/15 04:10:07;;;;;;;9.82;2.60;;;14.70;99.90;;;;;;5050059;28;20106;-62
2022/09/15 04:12:34;;;;;;;6.80;1.83;;;14.70;99.90;;;;;;5056544;28;20133;-63
2022/09/15 04:14:59;;;;;;;7.13;2.38;;;14.70;99.90;;;;;;5035262;28;20428;-63
2022/09/15 04:17:26;;;;;;;5.88;1.88;;;14.80;99.90;;;;;;5049173;28;20052;-63
2022/09/15 04:19:51;;;;;;;8.60;2.15;;;14.80;99.90;;;;;;5056394;28;20118;-63
2022/09/15 04:22:17;;;;;;;10.23;1.90;;;14.80;99.90;;;;;;5056066;28;20401;-62
2022/09/15 04:24:43;;;;;;;13.05;1.88;;;14.80;99.90;;;;;;5035494;28;20049;-63
2022/09/15 04:27:08;;;;;;;5.05;1.40;;;14.90;99.90;;;;;;5054879;28;20091;-63
2022/09/15 04:29:34;;;;;;;8.20;1.67;;;14.90;99.90;;;;;;5055769;28;20826;-63
2022/09/15 04:31:59;;;;;;;10.20;2.00;;;14.80;99.90;;;;;;5039066;28;20053;-62
2022/09/15 04:34:25;;;;;;;8.77;1.77;;;14.80;99.90;;;;;;5037999;28;20123;-62
2022/09/15 04:36:51;;;;;;;12.40;2.70;;;14.80;99.90;;;;;;5056486;28;20045;-64
2022/09/15 04:39:16;;;;;;;7.22;2.08;;;14.90;99.90;;;;;;5055748;28;20041;-62
2022/09/15 04:41:42;;;;;;;9.10;3.55;;;14.90;99.90;;;;;;5038087;28;20064;-64
2022/09/15 04:44:07;;;;;;;12.20;1.98;;;14.90;99.90;;;;;;5055426;28;20424;-63
2022/09/15 04:46:33;;;;;;;5.35;1.60;;;14.90;99.90;;;;;;5055536;28;20037;-63
2022/09/15 04:48:58;;;;;;;8.93;2.15;;;14.90;99.90;;;;;;5038045;28;20056;-63
2022/09/15 04:51:26;;;;;;;9.73;2.28;;;14.90;99.90;;;;;;5055866;28;20044;-61
2022/09/15 04:53:51;;;;;;;7.38;1.98;;;14.90;99.90;;;;;;5055601;28;20170;-64
2022/09/15 04:56:19;;;;;;;11.98;2.70;;;14.80;99.90;;;;;;5055783;28;20128;-63
2022/09/15 04:58:48;;;;;;;7.50;2.30;;;14.80;99.90;;;;;;5055141;28;20139;-63
2022/09/15 05:01:17;;;;;;;9.80;2.30;;;14.80;99.90;;;;;;5055082;28;20099;-64
2022/09/15 05:03:43;;;;;;;6.18;1.90;;;14.90;99.90;;;;;;5055465;28;20451;-64
2022/09/15 05:06:10;;;;;;;10.50;2.40;;;14.80;99.90;;;;;;5055255;28;20048;-64
2022/09/15 05:08:37;;;;;;;8.90;2.83;;;14.80;99.90;;;;;;5055246;28;20064;-63
2022/09/15 05:11:09;;;;;;;14.48;2.42;;;14.80;99.90;;;;;;5055449;28;20048;-63
2022/09/15 05:13:35;;;;;;;6.55;2.35;;;14.80;99.90;;;;;;5055009;28;20037;-64
2022/09/15 05:16:10;;;;;;;8.65;1.90;;;14.90;99.90;;;;;;5055072;28;20049;-62
2022/09/15 05:18:36;;;;;;;11.13;2.55;;;14.90;99.90;;;;;;5027777;28;20045;-62
2022/09/15 05:21:03;;;;;;;12.20;3.13;;;14.90;99.90;;;;;;5054839;28;20033;-64
2022/09/15 05:23:29;;;;;;;8.38;2.00;;;14.90;99.90;;;;;;5054697;28;20132;-63
2022/09/15 05:25:56;;;;;;;15.82;3.85;;;14.90;99.90;;;;;;5055087;28;20120;-62
2022/09/15 05:28:23;;;;;;;10.02;2.67;;;14.90;99.90;;;;;;5054021;28;20048;-62
2022/09/15 05:30:51;;;;;;;11.52;2.50;;;14.90;99.90;;;;;;5055132;28;20123;-62
2022/09/15 05:33:17;;;;;;;12.93;2.60;;;14.90;99.90;;;;;;5054852;28;20044;-62
2022/09/15 05:35:49;;;;;;;9.50;2.33;;;14.90;99.90;;;;;;5037123;28;20053;-62
2022/09/15 05:38:15;;;;;;;11.13;2.55;;;14.90;99.90;;;;;;5055097;28;20076;-62
2022/09/15 05:40:40;;;;;;;11.20;2.50;;;14.90;99.90;;;;;;5054548;28;20076;-61
2022/09/15 05:43:06;;;;;;;6.82;2.10;;;14.90;99.90;;;;;;5054615;28;20049;-63
2022/09/15 05:45:31;;;;;;;9.82;2.70;;;14.90;99.90;;;;;;5036783;28;20040;-62
2022/09/15 05:47:57;;;;;;;7.70;2.20;;;14.90;99.90;;;;;;5054510;28;20049;-62
2022/09/15 05:50:22;;;;;;;7.10;2.08;;;15.00;99.90;;;;;;5037266;28;20049;-63
2022/09/15 05:52:51;;;;;;;9.02;2.15;;;14.90;99.90;;;;;;5037114;28;20052;-60
2022/09/15 05:55:17;;;;;;;6.78;1.88;;;14.90;99.90;;;;;;5054400;28;20060;-60
2022/09/15 05:57:43;;;;;;;7.72;1.85;;;14.90;99.90;;;;;;5054439;28;20435;-60
2022/09/15 06:00:10;;;;;;;10.57;2.33;;;14.80;99.90;;;;;;5054276;28;20045;-61
2022/09/15 06:02:35;;;;;;;7.00;1.67;;;14.80;99.90;;;;;;5054220;28;20099;-60
2022/09/15 06:05:02;;;;;;;5.40;1.30;;;14.80;99.90;;;;;;5054752;28;20072;-61
2022/09/15 06:07:28;;;;;;;9.88;2.17;;;14.80;99.90;;;;;;5054013;28;20036;-63
2022/09/15 06:09:53;;;;;;;9.30;1.77;;;14.80;99.90;;;;;;5054451;28;20051;-62
2022/09/15 06:12:19;;;;;;;8.68;2.08;;;14.80;99.90;;;;;;5054301;28;20051;-63
2022/09/15 06:14:49;;;;;;;8.20;2.28;;;14.80;99.90;;;;;;5054245;28;20454;-63
2022/09/15 06:17:15;;;;;;;10.27;2.03;;;14.70;99.90;;;;;;5054619;28;20136;-62
2022/09/15 06:19:41;;;;;;;6.95;2.25;;;14.80;99.90;;;;;;5050846;28;20080;-62
2022/09/15 06:22:06;;;;;;;9.55;2.17;;;14.70;99.90;;;;;;5048363;28;20069;-62
2022/09/15 06:24:32;;;;;;;6.90;1.75;;;14.80;99.90;;;;;;5054215;28;20099;-63
2022/09/15 06:26:57;;;;;;;10.43;1.63;;;14.70;99.90;;;;;;5036503;28;20110;-60
2022/09/15 06:29:23;;;;;;;4.85;1.25;;;14.70;99.90;;;;;;5054374;28;20052;-64
2022/09/15 06:31:49;;;;;;;5.45;1.67;;;14.70;99.90;;;;;;5056914;28;20446;-61
2022/09/15 06:34:15;;;;;;;7.38;2.13;;;14.70;99.90;;;;;;5058147;28;20068;-59
2022/09/15 06:36:40;;;;;;;7.53;2.20;;;14.70;99.90;;;;;;5040321;28;20080;-60
2022/09/15 06:39:07;;;;;;;4.10;1.23;;;14.70;99.90;;;;;;5057978;28;20037;-61
2022/09/15 06:41:34;;;;;;;6.05;1.63;;;14.70;99.90;;;;;;5058194;28;20049;-60
2022/09/15 06:43:59;;;;;;;10.82;1.80;;;14.80;99.90;;;;;;5058108;28;20051;-59
2022/09/15 06:46:27;;;;;;;5.53;1.30;;;14.80;99.90;;;;;;5057902;28;20390;-61
2022/09/15 06:48:53;;;;;;;4.95;1.58;;;14.90;99.90;;;;;;5057784;28;20041;-62
2022/09/15 06:51:21;;;;;;;4.38;1.50;;;14.80;99.90;;;;;;5057797;28;20037;-61
2022/09/15 06:53:47;;;;;;;7.88;1.50;;;14.90;99.90;;;;;;5057701;28;20098;-61
2022/09/15 06:56:16;;;;;;;5.55;1.27;;;14.80;99.90;;;;;;5058244;28;20410;-60
2022/09/15 06:58:43;;;;;;;9.15;1.85;;;14.80;99.90;;;;;;5057366;28;20479;-61
2022/09/15 07:01:11;;;;;;;8.88;1.70;;;14.80;99.90;;;;;;5057474;28;20119;-60
2022/09/15 07:03:39;;;;;;;8.43;1.70;;;14.80;99.90;;;;;;5057901;28;20052;-61
2022/09/15 07:06:06;;;;;;;9.82;2.33;;;14.80;99.90;;;;;;5039432;28;20179;-60
2022/09/15 07:08:31;;;;;;;9.85;1.85;;;14.90;99.90;;;;;;5038130;28;20056;-62
2022/09/15 07:10:57;;;;;;;9.73;2.75;;;14.90;99.90;;;;;;5036799;28;20041;-60
2022/09/15 07:13:23;;;;;;;7.30;1.70;;;14.90;99.90;;;;;;5053910;28;20049;-61
2022/09/15 07:15:54;;;;;;;8.18;1.63;;;15.00;99.90;;;;;;5057719;28;20053;-61
2022/09/15 07:18:20;;;;;;;13.68;4.38;;;15.00;99.90;;;;;;5057161;28;20379;-60
2022/09/15 07:20:46;;;;;;;10.82;2.20;;;15.00;99.90;;;;;;5057328;28;20103;-61
2022/09/15 07:23:12;;;;;;;11.32;3.63;;;15.00;99.90;;;;;;5036824;28;20049;-61
2022/09/15 07:25:42;;;;;;;9.32;2.20;;;14.90;99.90;;;;;;5051191;28;20137;-61
2022/09/15 07:28:10;;;;;;;13.60;2.95;;;14.80;99.90;;;;;;5034227;28;20085;-61
2022/09/15 07:30:35;;;;;;;7.10;2.67;;;14.70;99.90;;;;;;5057230;28;20094;-60
2022/09/15 07:33:01;;;;;;;10.15;4.15;;;14.60;99.90;;;;;;5056941;28;20049;-61
2022/09/15 07:35:26;;;;;;;9.32;5.20;;;14.60;99.90;;;;;;5056726;28;20087;-61
2022/09/15 07:37:52;;;;;;;9.60;2.83;;;14.50;99.90;;;;;;5055941;28;20056;-60
2022/09/15 07:40:17;;;;;;;10.30;3.45;;;14.60;99.90;;;;;;5056861;28;20047;-61
2022/09/15 07:42:43;;;;;;;14.93;3.65;;;14.70;99.90;;;;;;5056711;28;20106;-61
2022/09/15 07:45:10;;;;;;;6.82;2.63;;;14.80;99.90;;;;;;5056879;28;20090;-60
2022/09/15 07:47:36;;;;;;;8.80;3.50;;;15.10;99.90;;;;;;5038965;28;20511;-61
2022/09/15 07:50:02;;;;;;;8.48;1.80;;;15.20;99.90;;;;;;5057239;28;20199;-60
2022/09/15 07:52:29;;;;;;;9.15;2.00;;;15.50;99.90;;;;;;5056729;28;20040;-61
2022/09/15 07:54:55;;;;;;;7.28;2.15;;;15.60;99.90;;;;;;5039070;28;20059;-60
2022/09/15 07:57:20;;;;;;;7.13;1.83;;;15.70;99.90;;;;;;5056805;28;20115;-61
2022/09/15 07:59:46;;;;;;;6.45;2.25;;;15.80;99.90;;;;;;5056381;28;20037;-61
2022/09/15 08:02:17;;;;;;;10.85;2.03;;;15.90;99.90;;;;;;5035998;28;20072;-60
2022/09/15 08:04:43;;;;;;;5.55;1.85;;;15.90;99.90;;;;;;5055739;28;20114;-61
2022/09/15 08:07:09;;;;;;;9.10;1.60;;;15.90;99.90;;;;;;5039029;28;20061;-61
2022/09/15 08:09:39;;;;;;;13.07;2.22;;;15.90;99.90;;;;;;5056408;28;20349;-62
2022/09/15 08:12:06;;;;;;;5.30;1.70;;;16.00;99.90;;;;;;5056402;28;20040;-62
2022/09/15 08:14:32;;;;;;;12.05;2.00;;;16.00;99.90;;;;;;5056108;28;20037;-61
2022/09/15 08:16:59;;;;;;;6.78;1.35;;;16.00;99.90;;;;;;5056400;28;20048;-61
2022/09/15 08:19:28;;;;;;;4.40;1.02;;;16.10;99.90;;;;;;5056177;28;20076;-61
2022/09/15 08:21:54;;;;;;;3.97;1.35;;;16.20;99.90;;;;;;5056412;28;20463;-61
2022/09/15 08:24:21;;;;;;;3.53;1.10;;;16.20;99.90;;;;;;5055973;28;20048;-61
2022/09/15 08:26:47;;;;;;;8.23;1.23;;;16.30;99.90;;;;;;5056155;28;20091;-61
2022/09/15 08:29:13;;;;;;;3.50;1.00;;;16.30;99.90;;;;;;5056439;28;20088;-61
2022/09/15 08:31:40;;;;;;;4.90;1.20;;;16.30;99.90;;;;;;5038284;28;20063;-62
2022/09/15 08:34:05;;;;;;;5.65;1.13;;;16.30;99.90;;;;;;5056072;28;20128;-61
2022/09/15 08:36:34;;;;;;;8.30;1.35;;;16.30;99.90;;;;;;5055982;28;20051;-62
2022/09/15 08:39:01;;;;;;;4.95;1.55;;;16.30;99.90;;;;;;5055962;28;20051;-61
2022/09/15 08:41:30;;;;;;;7.25;1.60;;;16.20;99.90;;;;;;5055944;28;20045;-61
2022/09/15 08:44:01;;;;;;;7.60;1.40;;;16.30;99.90;;;;;;5054976;28;20091;-61
2022/09/15 08:46:35;;;;;;;4.05;1.65;;;16.30;99.90;;;;;;5055531;28;20151;-62
2022/09/15 08:49:46;;;;;;;8.25;1.95;;;16.40;99.90;;;;;;5055927;28;20119;-61
2022/09/15 08:52:28;;;;;;;6.15;2.80;;;16.50;99.90;;;;;;5009466;28;20053;-61
2022/09/15 08:54:57;;;;;;;8.40;2.08;;;16.60;99.90;;;;;;5054753;28;20041;-63
2022/09/15 08:57:24;;;;;;;8.10;2.42;;;16.60;99.90;;;;;;5055698;28;20098;-62
2022/09/15 08:59:50;;;;;;;8.50;1.90;;;16.40;99.90;;;;;;5055410;28;20095;-62
2022/09/15 09:02:53;;;;;;;10.63;2.13;;;16.40;99.90;;;;;;5055972;28;20132;-61
2022/09/15 09:05:28;;;;;;;6.75;1.48;;;16.30;99.90;;;;;;5047662;28;20146;-61
2022/09/15 09:08:33;;;;;;;9.90;2.38;;;16.40;99.90;;;;;;5054429;28;20364;-60
2022/09/15 09:11:18;;;;;;;;;;;16.50;99.90;;;;;;4958226;28;20375;-61
2022/09/15 09:14:08;;;;;;;6.25;1.70;;;16.70;99.90;;;;;;5055282;28;19927;-61
2022/09/15 09:17:01;;;;;;;6.90;1.75;;;16.70;99.90;;;;;;5055286;28;20049;-61
2022/09/15 09:19:51;;;;;;;6.47;1.92;;;16.70;99.90;;;;;;5055010;28;20128;-61
2022/09/15 09:22:26;;;;;;;5.35;2.22;;;16.60;99.90;;;;;;5054770;28;20490;-61
2022/09/15 09:24:58;;;;;;;3.95;1.40;;;16.60;99.90;;;;;;5055268;28;20056;-61
2022/09/15 09:27:30;;;;;;;8.07;1.20;;;16.90;99.90;;;;;;5054153;28;20349;-61
2022/09/15 09:30:06;;;;;;;5.47;1.50;;;17.00;99.90;;;;;;5054745;28;20045;-62
2022/09/15 09:32:42;;;;;;;4.78;1.48;;;16.90;99.90;;;;;;5037752;28;20044;-61
2022/09/15 09:35:16;;;;;;;5.97;1.70;;;16.90;99.90;;;;;;5045447;28;20490;-61
2022/09/15 09:37:42;;;;;;;6.30;1.90;;;17.00;99.90;;;;;;5054502;28;20087;-62
2022/09/15 09:40:13;;;;;;;8.80;1.60;;;17.10;99.90;;;;;;5054586;28;20049;-61
2022/09/15 09:42:39;;;;;;;8.85;1.85;;;17.10;99.90;;;;;;5055228;28;20044;-61
2022/09/15 09:45:06;;;;;;;6.00;1.67;;;17.10;99.90;;;;;;5054623;28;20049;-61
2022/09/15 09:47:33;;;;;;;7.20;2.40;;;17.00;99.90;;;;;;5054356;28;20077;-61
2022/09/15 09:49:59;;;;;;;7.03;1.73;;;17.10;99.90;;;;;;5054784;28;20494;-61
2022/09/15 09:52:36;;;;;;;14.57;2.20;;;17.20;99.90;;;;;;5054322;28;20029;-61
2022/09/15 09:55:25;;;;;;;6.80;2.10;;;17.30;99.90;;;;;;5054033;28;20481;-61
2022/09/15 09:57:52;;;;;;;8.55;1.75;;;17.40;99.90;;;;;;5046728;28;20053;-62
2022/09/15 10:00:33;;;;;;;4.50;1.20;;;17.30;99.90;;;;;;5054140;28;20406;-61
2022/09/15 10:03:18;;;;;;;5.75;1.58;;;17.30;99.90;;;;;;5036778;28;20048;-60
2022/09/15 10:05:58;;;;;;;6.10;1.60;;;17.20;99.90;;;;;;5054161;28;20128;-62
2022/09/15 10:08:24;;;;;;;4.25;1.55;;;17.40;99.90;;;;;;5054314;28;20124;-62
2022/09/15 10:11:02;;;;;;;5.70;1.70;;;17.40;99.90;;;;;;5054254;28;20132;-62
2022/09/15 10:13:28;;;;;;;9.18;1.50;;;17.30;99.90;;;;;;5053913;28;20332;-62
2022/09/15 10:15:58;;;;;;;10.52;2.15;;;17.20;99.90;;;;;;5036751;28;20051;-62
2022/09/15 10:18:37;;;;;;;2.95;1.30;;;17.00;99.90;;;;;;5033471;28;20049;-62
2022/09/15 10:21:08;;;;;;;6.40;1.80;;;17.00;99.90;;;;;;5051697;28;20432;-62
2022/09/15 10:23:34;;;;;;;5.13;1.60;;;17.10;99.90;;;;;;5053850;28;20371;-62
2022/09/15 10:26:15;;;;;;;10.85;2.03;;;17.10;99.90;;;;;;5054231;28;20052;-61
2022/09/15 10:28:41;;;;;;;4.75;1.58;;;17.30;99.90;;;;;;5053868;28;20052;-62
2022/09/15 10:31:12;;;;;;;5.80;1.42;;;17.20;99.90;;;;;;5054274;28;20045;-61
2022/09/15 10:33:41;;;;;;;5.40;1.58;;;17.20;99.90;;;;;;5044347;28;20486;-61
2022/09/15 10:36:19;;;;;;;8.57;1.58;;;17.20;99.90;;;;;;5053722;28;20040;-62
2022/09/15 10:38:58;;;;;;;4.88;1.80;;;17.20;99.90;;;;;;5054080;28;20494;-61
2022/09/15 10:41:29;;;;;;;5.18;1.55;;;17.20;99.90;;;;;;5054160;28;20055;-61
2022/09/15 10:44:17;;;;;;;3.40;1.25;;;17.00;99.90;;;;;;5051915;28;20098;-61
2022/09/15 10:47:18;;;;;;;6.50;1.88;;;17.00;99.90;;;;;;5053681;28;20045;-62
2022/09/15 10:49:54;;;;;;;3.72;1.25;;;17.10;99.90;;;;;;5025034;28;20056;-62
2022/09/15 10:52:46;;;;;;;7.05;1.80;;;17.20;99.90;;;;;;5053838;28;20049;-61
2022/09/15 10:55:35;;;;;;;3.28;1.25;;;17.40;99.90;;;;;;5053667;28;20048;-61
2022/09/15 10:58:22;;;;;;;5.80;1.42;;;17.40;99.90;;;;;;5053810;28;20151;-61
2022/09/15 11:01:28;;;;;;;6.60;1.70;;;17.60;99.90;;;;;;5045630;28;20486;-62
2022/09/15 11:04:22;;;;;;;8.55;1.60;;;17.60;99.90;;;;;;5046750;28;20125;-61
2022/09/15 11:07:01;;;;;;;6.30;1.40;;;17.50;99.90;;;;;;5036351;28;20059;-61
2022/09/15 11:09:39;;;;;;;3.55;1.15;;;17.40;99.90;;;;;;5053223;28;20040;-61
2022/09/15 11:12:18;;;;;;;4.38;1.92;;;17.50;99.90;;;;;;5019686;28;20102;-61
2022/09/15 11:15:01;;;;;;;3.95;1.27;;;17.50;99.90;;;;;;5053677;28;20045;-62
2022/09/15 11:17:46;;;;;;;4.00;1.70;;;17.50;99.90;;;;;;5055690;28;20049;-61
2022/09/15 11:20:32;;;;;;;7.82;1.55;;;17.20;99.90;;;;;;5057680;28;20041;-61
2022/09/15 11:23:17;;;;;;;6.15;1.83;;;17.40;99.90;;;;;;5056604;28;20080;-62
2022/09/15 11:25:48;;;;;;;4.30;1.60;;;17.50;99.90;;;;;;5056937;28;20061;-61
2022/09/15 11:28:26;;;;;;;6.30;1.42;;;17.60;99.90;;;;;;5057283;28;20434;-61
2022/09/15 11:31:23;;;;;;;5.05;1.40;;;17.80;99.90;;;;;;5057512;28;20049;-62
2022/09/15 11:34:00;;;;;;;7.10;1.50;;;18.00;99.90;;;;;;5045181;28;20053;-62
2022/09/15 11:36:34;;;;;;;7.88;2.00;;;18.10;99.90;;;;;;5035770;28;20049;-61
2022/09/15 11:39:05;;;;;;;3.92;1.42;;;18.30;99.90;;;;;;5054124;28;20379;-61
2022/09/15 11:41:39;;;;;;;5.32;1.70;;;18.30;99.90;;;;;;5057044;28;20056;-62
2022/09/15 11:44:21;;;;;;;6.30;1.55;;;18.00;99.90;;;;;;5046555;28;20124;-61
2022/09/15 11:46:57;;;;;;;6.03;1.50;;;17.80;99.90;;;;;;5056825;28;20045;-62
2022/09/15 11:49:30;;;;;;;4.53;1.33;;;17.90;99.90;;;;;;5022789;28;20131;-61
2022/09/15 11:52:04;;;;;;;7.30;1.38;;;18.10;99.90;;;;;;5057029;28;20055;-61
2022/09/15 11:54:36;;;;;;;;;;;18.10;99.90;;;;;;5056431;28;20379;-60
2022/09/15 11:57:02;;;;;;;6.25;1.63;;;18.00;99.90;;;;;;5056853;28;19921;-60
2022/09/15 12:00:05;;;;;;;3.75;1.58;;;18.00;99.90;;;;;;5056711;28;20132;-60
2022/09/15 12:02:45;;;;;;;6.90;1.80;;;17.90;99.90;;;;;;5056794;28;20047;-61
2022/09/15 12:05:28;;;;;;;7.22;1.88;;;17.40;99.90;;;;;;5046968;28;20127;-60
2022/09/15 12:08:13;;;;;;;7.90;1.92;;;17.10;99.90;;;;;;5056690;28;20048;-60
2022/09/15 12:10:51;;;;;;;5.32;1.77;;;16.80;99.90;;;;;;5056152;28;20041;-61
2022/09/15 12:13:19;;;;;;;9.40;2.83;;;16.80;99.90;;;;;;5056465;28;20056;-62
2022/09/15 12:15:49;;;;;;;11.23;2.20;;;16.80;99.90;;;;;;5056594;28;20366;-61
2022/09/15 12:18:24;;;;;;;8.88;2.28;;;17.00;99.90;;;;;;5056530;28;20067;-60
2022/09/15 12:20:54;;;;;;;6.32;1.45;;;16.90;99.90;;;;;;5055969;28;20482;-61
2022/09/15 12:23:37;;;;;;;9.35;1.88;;;16.90;99.90;;;;;;5055893;28;20589;-61
2022/09/15 12:26:14;;;;;;;10.48;2.22;;;17.00;99.90;;;;;;5055944;28;20056;-61
2022/09/15 12:28:41;;;;;;;3.47;1.40;;;17.10;99.90;;;;;;5056132;28;20053;-61
2022/09/15 12:31:35;;;;;;;10.48;3.33;;;17.00;99.90;;;;;;5055883;28;20103;-61
2022/09/15 12:34:05;;;;;;;6.17;1.50;;;17.10;99.90;;;;;;5046163;28;20131;-61
2022/09/15 12:36:35;;;;;;;2.63;1.15;;;17.50;99.90;;;;;;5056057;28;20068;-60
2022/09/15 12:39:04;;;;;;;4.13;1.27;;;17.60;99.90;;;;;;5056043;28;20053;-62
2022/09/15 12:41:31;;;;;;;5.45;1.10;;;17.60;99.90;;;;;;5055957;28;20080;-62
2022/09/15 12:44:17;;;;;;;3.80;1.15;;;17.90;99.90;;;;;;5055923;28;20045;-61
2022/09/15 12:46:51;;;;;;;2.97;1.10;;;18.00;99.90;;;;;;5055607;28;20114;-60
2022/09/15 12:49:19;;;;;;;5.53;1.35;;;17.80;99.90;;;;;;5055695;28;20045;-61
2022/09/15 12:51:49;;;;;;;4.38;1.63;;;17.40;99.90;;;;;;5056142;28;20048;-60
2022/09/15 12:54:22;;;;;;;12.70;3.30;;;17.20;99.90;;;;;;5055409;28;20455;-61
2022/09/15 12:56:52;;;;;;;11.25;3.28;;;16.40;99.90;;;;;;5055271;28;20459;-60
2022/09/15 12:59:24;;;;;;;6.25;2.33;;;15.50;99.90;;;;;;5056060;28;20053;-63
2022/09/15 13:01:51;;;;;;;6.80;1.40;;;15.10;99.90;;;;;;5055339;28;20107;-60
2022/09/15 13:04:51;;;;;;;7.57;1.73;;;14.90;99.90;;;;;;5055421;28;20183;-61
2022/09/15 13:07:17;;;;;;;8.88;1.58;;;14.90;99.90;;;;;;5037504;28;20061;-62